Kirsten H — WY7979 — position and weather

sailwx.info

Track history (hours):
 
Tides and Currents Weather Stations Pressure Air Temp Water Temp Dewpoint Dewpoint Depression Visibility Wind Speed Wind Dir Waves Ship Positions

Kirsten H

Owner: BOYER TOWING, KETCHIKAN, AK. More information available from US FCC via Universal Licensing System and Coast Guard Vessel Documentation Center.

Last reported at 2016-Aug-20 20:09 UTC. Time now 2016-Aug-24 23:17 UTC.
Position N 51°30' W 127°51'.

Length 22 m; draft 3.7 m.

Type: Tow > 200 m length. MMSI: 366623050.

Date/timePositionNaut miles runAvg speedWind from/ knotsBaromVisibWave heightAir tempDewpointWater temp
2016-Aug-20 20:09N 51°30' W 127°51'14 7.1
2016-Aug-20 18:14N 51°16' W 127°52'5 7.2
2016-Aug-20 17:33N 51°12' W 127°51'6 6.4
2016-Aug-20 16:33N 51°06' W 127°45'7 7.5
2016-Aug-20 15:33N 51°01' W 127°36'9 8.7
2016-Aug-20 14:33N 50°56' W 127°26'9 9.0
2016-Aug-20 13:33N 50°51' W 127°14'9 8.1
2016-Aug-20 12:26N 50°46' W 127°02'70 7.7
2016-Aug-20 03:22N 50°15' W 125°23'7 8.8
2016-Aug-20 02:34N 50°08' W 125°21'5 5.5
2016-Aug-20 01:34N 50°04' W 125°15'7 6.7
2016-Aug-20 00:31N 49°58' W 125°08'9 8.9
2016-Aug-19 23:33N 49°53' W 124°58'8 8.2
2016-Aug-19 22:34N 49°48' W 124°48'8 8.3
2016-Aug-19 21:34N 49°43' W 124°38'8 8.4
2016-Aug-19 20:34N 49°37' W 124°28'9 8.6
2016-Aug-19 19:34N 49°33' W 124°17'8 7.7
2016-Aug-19 18:33N 49°28' W 124°07'8 7.9
2016-Aug-19 17:34N 49°24' W 123°57'8 7.8
2016-Aug-19 16:34N 49°19' W 123°48'8 7.5
2016-Aug-19 15:33N 49°14' W 123°39'7 6.9
2016-Aug-19 14:34N 49°10' W 123°31'6 6.4
2016-Aug-19 13:34N 49°06' W 123°23'7 7.1
2016-Aug-19 12:34N 49°01' W 123°15'8 8.0
2016-Aug-19 11:34N 48°56' W 123°06'7 7.3
2016-Aug-19 10:34N 48°51' W 122°58'8 8.0
2016-Aug-19 09:33N 48°46' W 122°48'7 7.5
2016-Aug-19 08:34N 48°40' W 122°43'7 6.6
2016-Aug-19 07:34N 48°33' W 122°45'6 6.4
2016-Aug-19 06:34N 48°27' W 122°44'25 8.1
2016-Aug-19 03:32N 48°03' W 122°38'9 9.4
2016-Aug-19 02:34N 47°56' W 122°29'8 8.4
2016-Aug-19 01:34N 47°48' W 122°26'6 5.8
2016-Aug-19 00:34N 47°43' W 122°31'1 0.6
2016-Aug-18 23:33N 47°43' W 122°32'1 0.9
2016-Aug-18 22:34N 47°43' W 122°31'9 9.3
2016-Aug-18 21:34N 47°36' W 122°22'4 3.7
2016-Aug-18 20:33N 47°32' W 122°20'0 0.0
2016-Aug-18 00:19N 47°32' W 122°20'5 6.1
2016-Aug-17 23:33N 47°36' W 122°23'9 8.9
2016-Aug-17 22:33N 47°43' W 122°32'0 0.3
2016-Aug-17 21:34N 47°43' W 122°32'3 2.6
2016-Aug-17 20:33N 47°41' W 122°29'7 7.1
2016-Aug-17 19:33N 47°36' W 122°22'4 3.5
2016-Aug-17 18:32N 47°32' W 122°20'0 0.2
2016-Aug-17 17:33N 47°32' W 122°20'0 0.0
2016-Aug-17 16:30N 47°32' W 122°20'1 0.0
2016-Aug-15 17:32N 47°33' W 122°20'2 2.5
2016-Aug-15 16:33N 47°35' W 122°21'2 1.8
2016-Aug-15 15:33N 47°34' W 122°21'  
2016-Aug-10 20:32N 47°32' W 122°20'  
Track history (hours):
 
Tides and Currents Weather Stations Pressure Air Temp Water Temp Dewpoint Dewpoint Depression Visibility Wind Speed Wind Dir Waves Ship Positions

Kirsten H

Owner: BOYER TOWING, KETCHIKAN, AK. More information available from US FCC via Universal Licensing System and Coast Guard Vessel Documentation Center.

Last reported at 2016-Aug-20 20:09 UTC. Time now 2016-Aug-24 23:17 UTC.
Position N 51°30' W 127°51'.

Length 22 m; draft 3.7 m.

Type: Tow > 200 m length. MMSI: 366623050.

Date/timePositionNaut miles runAvg speedWind from/ knotsBaromVisibWave heightAir tempDewpointWater temp
2016-Aug-20 20:09N 51°30' W 127°51'14 7.1
2016-Aug-20 18:14N 51°16' W 127°52'5 7.2
2016-Aug-20 17:33N 51°12' W 127°51'6 6.4
2016-Aug-20 16:33N 51°06' W 127°45'7 7.5
2016-Aug-20 15:33N 51°01' W 127°36'9 8.7
2016-Aug-20 14:33N 50°56' W 127°26'9 9.0
2016-Aug-20 13:33N 50°51' W 127°14'9 8.1
2016-Aug-20 12:26N 50°46' W 127°02'70 7.7
2016-Aug-20 03:22N 50°15' W 125°23'7 8.8
2016-Aug-20 02:34N 50°08' W 125°21'5 5.5
2016-Aug-20 01:34N 50°04' W 125°15'7 6.7
2016-Aug-20 00:31N 49°58' W 125°08'9 8.9
2016-Aug-19 23:33N 49°53' W 124°58'8 8.2
2016-Aug-19 22:34N 49°48' W 124°48'8 8.3
2016-Aug-19 21:34N 49°43' W 124°38'8 8.4
2016-Aug-19 20:34N 49°37' W 124°28'9 8.6
2016-Aug-19 19:34N 49°33' W 124°17'8 7.7
2016-Aug-19 18:33N 49°28' W 124°07'8 7.9
2016-Aug-19 17:34N 49°24' W 123°57'8 7.8
2016-Aug-19 16:34N 49°19' W 123°48'8 7.5
2016-Aug-19 15:33N 49°14' W 123°39'7 6.9
2016-Aug-19 14:34N 49°10' W 123°31'6 6.4
2016-Aug-19 13:34N 49°06' W 123°23'7 7.1
2016-Aug-19 12:34N 49°01' W 123°15'8 8.0
2016-Aug-19 11:34N 48°56' W 123°06'7 7.3
2016-Aug-19 10:34N 48°51' W 122°58'8 8.0
2016-Aug-19 09:33N 48°46' W 122°48'7 7.5
2016-Aug-19 08:34N 48°40' W 122°43'7 6.6
2016-Aug-19 07:34N 48°33' W 122°45'6 6.4
2016-Aug-19 06:34N 48°27' W 122°44'25 8.1
2016-Aug-19 03:32N 48°03' W 122°38'9 9.4
2016-Aug-19 02:34N 47°56' W 122°29'8 8.4
2016-Aug-19 01:34N 47°48' W 122°26'6 5.8
2016-Aug-19 00:34N 47°43' W 122°31'1 0.6
2016-Aug-18 23:33N 47°43' W 122°32'1 0.9
2016-Aug-18 22:34N 47°43' W 122°31'9 9.3
2016-Aug-18 21:34N 47°36' W 122°22'4 3.7
2016-Aug-18 20:33N 47°32' W 122°20'0 0.0
2016-Aug-18 00:19N 47°32' W 122°20'5 6.1
2016-Aug-17 23:33N 47°36' W 122°23'9 8.9
2016-Aug-17 22:33N 47°43' W 122°32'0 0.3
2016-Aug-17 21:34N 47°43' W 122°32'3 2.6
2016-Aug-17 20:33N 47°41' W 122°29'7 7.1
2016-Aug-17 19:33N 47°36' W 122°22'4 3.5
2016-Aug-17 18:32N 47°32' W 122°20'0 0.2
2016-Aug-17 17:33N 47°32' W 122°20'0 0.0
2016-Aug-17 16:30N 47°32' W 122°20'1 0.0
2016-Aug-15 17:32N 47°33' W 122°20'2 2.5
2016-Aug-15 16:33N 47°35' W 122°21'2 1.8
2016-Aug-15 15:33N 47°34' W 122°21'  
2016-Aug-10 20:32N 47°32' W 122°20'  

Dump ship's entire track history